РУС

ENG

 
  Pireps - S7
 

Рейс SBI1078

  • Выполнял: Nikita Kozlovsky
  • Аэропорт отправления: Kurumoch International Airport (UWWW)
  • Аэропорт назначения: Domodedovo Airport (UUDD)
  • Тип ВС: A320-214 (RA-73407)
  • Время полёта: 01.26
  • Дата полёта: 25.07.2022
  • Маршрут: LURIP A721 BUNAK G3 FE AO
  • Статус: Одобрен

Детали полёта
Gross Revenue:
(137 load / $ 132.00 per unit
$ 18, 084.00
Fuel Cost:
(3194 fuel used @ 5.1 / unit)
$ 16, 289.40


Дополнительная информация о полёте:

Лог

Aircraft Used in flight is Airbus A320 Aeroflot SkyTeam
22:42 Boarding
22:42 Strobe Lights ON at 490 AGL
22:42 Navigation Lights ON at 490 AGL
22:42 Brakes are On
22:44 Strobe Lights OFF at 490 AGL
22:44 Strobe Lights ON at 490 AGL
22:48 Engine 2 Started
22:48 Beacon Lights ON at 490 AGL
22:48 Spoilers Armed
22:48 Engine 1 Started
22:48 Engine 1 Stoped
22:49 Engine 1 Started
22:49 Taxi Lights ON at 490 AGL
22:49Flaps 2 Selected at 490ft and 1kts
22:49Flaps 3 Selected at 490ft and 2kts
22:49 Brakes are Released
22:55 Landing Lights ON at 490 AGL
22:56 You Took off @ 154 Knots and Flaps at Position 3
Departure Weather
UWWW 241930Z 29003MPS 9999 SCT033 22/15 Q1007 R15/CLRD60 NOSIG RMK QFE744/0992
22:56 Paused
22:56 Landing Gear Up @ 162 Knots and 520 Feet
22:56 Unpaused
22:56 Taxi Lights OFF at 1780 AGL
22:57Flaps 2 Selected at 2260ft and 174kts
22:57Flaps 1 Selected at 2820ft and 196kts
22:57Flaps Retracted at 2830ft and 196kts
22:57 Spoilers Disarmed
22:57 Below 10000 feet you are not allowed to go over 250 knots
22:59 Landing Lights OFF at 9830 AGL
23:55 Landing Lights ON at 9340 AGL
23:59 Spoilers Armed
00:02Flaps 1 Selected at 3160ft and 203kts
00:04Flaps 3 Selected at 2970ft and 191kts
00:05 Landing Gear Down @ 162 Knots and 2500 Feet
00:05 Taxi Lights ON at 2420 AGL
00:05Flaps 4 Selected at 2380ft and 154kts
00:05Flaps 5 Selected at 2340ft and 152kts
00:08 You Landed @ 121 Knots and with -250 Vertical Speed
Arrival Weather
UUDD 241930Z 25002G07MPS 160V270 CAVOK 21/14 Q1009 R32L/CLRD60 NOSIG
00:08 Paused
00:09 Spoilers Disarmed
00:09 Unpaused
00:09 Brakes are On
Pirep logged with S7 Tracking 1.0.0.14



Общая оценка полета : 100%




Route Map



 
 
   
 
Новости

29.12.2021 - C Новым годом

Дорогие друзья, поздравляю вас с Наступающим Новым годом!
Желаем успехов, приятных взлетов и мягких посадок!

   
 
Авторизация






Регистрация

Восстановить пароль?

Мы в соц. сетях

      



   
 





   
 


   
 


Яндекс.Метрика

www.va-s7.ru 2011-2021
Все права защищены.



Минуточку внимания!
Сайт va-s7.ru не является коммерческим проектом. Мы не имеем отношения к торговым маркам "S7" и "Globus" и их представителям.
Эмблемы на сайте являются собственностью соответствующих компаний.

аэронавигационная метеорологическая и любая другая информация с данного ресурса ни в коем случае не должна использоваться для реальных полетов